Time;durP1;ratioP1;P1;durP2;ratioP2;P2;SDS_P1;SDS_P2;PMS_P1;PMS_P2;Temp;Humidity;BMP_temperature;BMP_pressure;BME280_temperature;BME280_humidity;BME280_pressure;Samples;Min_cycle;Max_cycle;Signal;HPM_P1;HPM_P2
2021/11/29 05:00:56;;;;;;;11.27;10.18;;;;;;;8.96;100.00;93546.38;5818442;23;20054;-70
2021/11/29 05:03:21;;;;;;;10.30;9.38;;;;;;;9.07;100.00;93575.19;4972719;28;20117;-70
2021/11/29 05:05:47;;;;;;;7.20;6.60;;;;;;;9.13;100.00;93575.22;4973446;28;20418;-69
2021/11/29 05:08:13;;;;;;;7.25;6.55;;;;;;;9.23;100.00;93817.63;4971875;28;20120;-70
2021/11/29 05:10:38;;;;;;;6.90;5.60;;;;;;;9.27;100.00;93811.91;4973629;28;20034;-70
2021/11/29 05:13:04;;;;;;;5.65;5.15;;;;;;;9.34;100.00;93815.31;4971884;28;20026;-70
2021/11/29 05:15:29;;;;;;;7.57;5.05;;;;;;;9.27;100.00;93809.31;4991036;28;20034;-71
2021/11/29 05:17:55;;;;;;;6.80;5.30;;;;;;;9.32;100.00;93821.66;4972065;28;20589;-70
2021/11/29 05:20:20;;;;;;;4.60;4.20;;;;;;;9.41;100.00;93805.00;4956851;28;20069;-70
2021/11/29 05:22:46;;;;;;;4.00;3.00;;;;;;;9.39;100.00;93791.50;4990726;28;20037;-70
2021/11/29 05:25:11;;;;;;;3.22;3.03;;;;;;;9.43;100.00;93777.19;4989360;28;20022;-70
2021/11/29 05:27:37;;;;;;;4.53;3.22;;;;;;;9.37;100.00;93762.47;4990580;28;20032;-70
2021/11/29 05:30:05;;;;;;;3.22;2.90;;;;;;;9.35;100.00;93739.41;4955327;28;20092;-70
2021/11/29 05:32:31;;;;;;;3.30;2.95;;;;;;;9.33;100.00;93725.09;4973197;28;20124;-70
2021/11/29 05:34:56;;;;;;;3.55;2.75;;;;;;;9.26;100.00;93701.00;4971528;28;20057;-70
2021/11/29 05:37:22;;;;;;;3.30;3.00;;;;;;;9.21;100.00;93711.13;4972846;28;20390;-70
2021/11/29 05:39:49;;;;;;;3.72;3.42;;;;;;;9.06;100.00;93692.38;4972774;28;20026;-70
2021/11/29 05:42:14;;;;;;;4.22;3.83;;;;;;;9.10;100.00;93709.09;4989467;28;20030;-70
2021/11/29 05:44:40;;;;;;;6.07;4.47;;;;;;;9.08;100.00;93719.63;4990560;28;20484;-70
2021/11/29 05:47:05;;;;;;;6.28;5.78;;;;;;;9.07;100.00;93738.69;4988244;28;20396;-70
2021/11/29 05:49:31;;;;;;;6.50;5.88;;;;;;;9.08;100.00;93737.72;4972949;28;20030;-70
2021/11/29 05:51:58;;;;;;;5.78;5.38;;;;;;;9.07;100.00;93735.31;4971120;28;20030;-70
2021/11/29 05:54:23;;;;;;;6.82;6.22;;;;;;;8.99;100.00;93731.09;4972737;28;20018;-70
2021/11/29 05:56:49;;;;;;;6.90;6.30;;;;;;;8.97;100.00;93738.25;4971400;28;20092;-70
2021/11/29 05:59:14;;;;;;;6.85;6.03;;;;;;;8.97;100.00;93744.19;4971711;28;20041;-71
2021/11/29 06:01:40;;;;;;;5.03;4.63;;;;;;;9.04;100.00;93751.97;4966287;28;20457;-70
2021/11/29 06:04:05;;;;;;;4.90;3.78;;;;;;;9.14;100.00;93774.88;4990614;28;20018;-70
2021/11/29 06:06:31;;;;;;;1.90;1.75;;;;;;;9.39;100.00;93781.16;4991965;28;20034;-70
2021/11/29 06:08:56;;;;;;;3.55;2.10;;;;;;;9.48;100.00;93757.53;5007754;28;20120;-70
2021/11/29 06:11:22;;;;;;;2.70;1.85;;;;;;;9.65;100.00;93711.47;5009355;28;20048;-70
2021/11/29 06:13:47;;;;;;;2.00;1.80;;;;;;;9.53;100.00;93622.59;4990214;28;20026;-70
2021/11/29 06:16:13;;;;;;;2.63;2.17;;;;;;;9.34;100.00;93582.00;4991611;28;20099;-70
2021/11/29 06:18:38;;;;;;;2.60;2.30;;;;;;;9.27;100.00;93582.00;4991071;28;20034;-70
2021/11/29 06:21:03;;;;;;;3.15;2.58;;;;;;;9.30;100.00;93589.34;4990724;28;20451;-70
2021/11/29 06:23:31;;;;;;;2.40;2.10;;;;;;;9.22;100.00;93593.91;4975525;28;20119;-70
2021/11/29 06:25:56;;;;;;;4.43;1.48;;;;;;;9.45;100.00;93568.50;4989595;28;20037;-70
2021/11/29 06:28:22;;;;;;;2.13;1.92;;;;;;;9.40;100.00;93526.97;4991292;28;20026;-70
2021/11/29 06:30:47;;;;;;;2.20;2.08;;;;;;;9.23;100.00;93513.63;4989940;28;20036;-70
2021/11/29 06:33:13;;;;;;;3.45;3.13;;;;;;;9.17;100.00;93539.47;5009051;28;20030;-71
2021/11/29 06:35:38;;;;;;;3.28;2.67;;;;;;;9.24;100.00;93550.59;4990486;28;20192;-70
2021/11/29 06:38:06;;;;;;;1.88;1.40;;;;;;;9.42;100.00;93541.28;5008503;28;20057;-70
2021/11/29 06:40:33;;;;;;;2.08;1.90;;;;;;;9.35;100.00;93496.53;4991142;28;20026;-70
2021/11/29 06:42:59;;;;;;;3.00;2.20;;;;;;;9.33;100.00;93451.25;4973779;28;20116;-71
2021/11/29 06:45:25;;;;;;;3.17;2.53;;;;;;;9.27;100.00;93455.44;4991195;28;20172;-70
2021/11/29 06:47:50;;;;;;;3.35;2.60;;;;;;;9.27;100.00;93450.25;4989498;28;20025;-70
2021/11/29 06:50:16;;;;;;;2.85;2.65;;;;;;;9.29;100.00;93483.63;4991179;28;20028;-70
2021/11/29 06:52:43;;;;;;;4.07;2.40;;;;;;;9.32;100.00;93496.16;4989701;28;20096;-70
2021/11/29 06:55:12;;;;;;;3.17;2.88;;;;;;;9.39;100.00;93518.41;4974872;28;20083;-70
2021/11/29 06:57:38;;;;;;;2.90;2.63;;;;;;;9.40;100.00;93517.44;4974810;28;20056;-70
2021/11/29 07:00:06;;;;;;;6.55;5.95;;;;;;;9.48;100.00;93531.91;4990176;28;20018;-70
2021/11/29 07:02:31;;;;;;;5.10;4.20;;;;;;;9.51;100.00;93518.59;4964393;28;20050;-73
2021/11/29 07:04:57;;;;;;;5.07;4.57;;;;;;;9.56;100.00;93505.09;4964338;28;20038;-72
2021/11/29 07:07:22;;;;;;;4.05;3.65;;;;;;;9.43;100.00;93534.31;4969366;28;20034;-70
2021/11/29 07:09:48;;;;;;;5.30;3.60;;;;;;;9.43;100.00;93545.44;4970187;28;20038;-71
2021/11/29 07:12:15;;;;;;;3.67;3.38;;;;;;;9.49;100.00;93547.25;4970869;28;20026;-70
2021/11/29 07:14:40;;;;;;;0.77;0.70;;;;;;;10.44;100.00;93396.59;4970635;28;20562;-72
2021/11/29 07:17:06;;;;;;;0.90;0.80;;;;;;;10.45;100.00;93019.53;4988376;28;20165;-71
2021/11/29 07:19:31;;;;;;;1.88;0.90;;;;;;;10.20;100.00;92988.59;4971570;28;20119;-71
2021/11/29 07:21:57;;;;;;;0.52;0.50;;;;;;;10.86;100.00;92771.00;4987652;28;20037;-71
2021/11/29 07:24:22;;;;;;;0.80;0.70;;;;;;;10.69;100.00;92777.88;4988856;28;20497;-70
2021/11/29 07:26:48;;;;;;;2.53;0.90;;;;;;;10.60;100.00;92797.34;4969841;28;20030;-70
2021/11/29 07:29:14;;;;;;;1.17;1.02;;;;;;;10.50;100.00;92781.59;4971517;28;20038;-70
2021/11/29 07:31:41;;;;;;;1.38;0.75;;;;;;;10.90;100.00;92772.16;4970163;28;20606;-70
2021/11/29 07:34:07;;;;;;;1.67;0.57;;;;;;;11.18;100.00;92758.47;4971385;28;20048;-72
2021/11/29 07:36:32;;;;;;;0.70;0.60;;;;;;;11.26;100.00;92752.94;4970246;28;20026;-71
2021/11/29 07:38:58;;;;;;;2.22;0.80;;;;;;;11.02;100.00;92749.59;4987952;28;20027;-71
2021/11/29 07:41:24;;;;;;;1.50;1.00;;;;;;;11.04;100.00;92739.78;4955056;28;20430;-72
2021/11/29 07:43:50;;;;;;;2.92;0.70;;;;;;;11.00;100.00;92754.22;4969760;28;20443;-71
2021/11/29 07:46:17;;;;;;;1.20;0.90;;;;;;;10.96;100.00;92760.88;4970661;28;20023;-71
2021/11/29 07:48:42;;;;;;;1.20;0.60;;;;;;;11.02;100.00;92766.94;4986967;28;20031;-71
2021/11/29 07:51:08;;;;;;;1.95;1.10;;;;;;;11.04;100.00;92780.47;4955269;28;20069;-71
2021/11/29 07:53:33;;;;;;;3.83;1.00;;;;;;;10.84;100.00;92775.66;4970020;28;20030;-71
2021/11/29 07:55:59;;;;;;;1.67;1.40;;;;;;;10.75;100.00;92792.53;4970637;28;20030;-71
2021/11/29 07:58:24;;;;;;;2.20;1.75;;;;;;;10.62;100.00;92790.16;4988425;28;20030;-73
2021/11/29 08:00:50;;;;;;;2.13;1.67;;;;;;;10.74;100.00;92801.31;4990770;28;20422;-73
2021/11/29 08:03:16;;;;;;;2.25;2.10;;;;;;;10.93;100.00;92804.56;4990622;28;20137;-73
2021/11/29 08:05:41;;;;;;;3.47;2.10;;;;;;;10.97;100.00;92805.69;4988515;28;20026;-73
2021/11/29 08:08:08;;;;;;;2.47;1.25;;;;;;;10.76;100.00;92795.88;5007910;28;20026;-73
2021/11/29 08:10:36;;;;;;;2.38;1.30;;;;;;;10.70;100.00;92815.69;4988584;28;20022;-73
2021/11/29 08:13:03;;;;;;;2.55;1.40;;;;;;;10.75;100.00;92854.66;4974391;28;20022;-70
2021/11/29 08:15:29;;;;;;;4.22;1.63;;;;;;;10.86;100.00;92855.66;4989903;28;20026;-73
2021/11/29 08:17:54;;;;;;;2.15;1.25;;;;;;;11.06;100.00;92853.53;4972866;28;20131;-73
2021/11/29 08:20:24;;;;;;;1.65;1.50;;;;;;;11.46;100.00;92836.25;4990329;28;20538;-73
2021/11/29 08:22:49;;;;;;;3.33;2.10;;;;;;;11.47;100.00;92834.47;4989051;28;20026;-73
2021/11/29 08:25:15;;;;;;;2.03;1.90;;;;;;;11.76;100.00;92805.00;4977586;28;20430;-73
2021/11/29 08:27:41;;;;;;;3.42;3.13;;;;;;;11.99;100.00;92801.53;4971845;28;20125;-70
2021/11/29 08:30:09;;;;;;;4.28;3.58;;;;;;;12.01;100.00;92808.06;4991858;28;20023;-71
2021/11/29 08:32:35;;;;;;;3.60;2.47;;;;;;;12.90;100.00;92775.22;4973242;28;20029;-70
2021/11/29 08:35:01;;;;;;;2.40;2.20;;;;;;;12.38;100.00;92756.53;4991143;28;20018;-70
2021/11/29 08:37:26;;;;;;;3.50;2.38;;;;;;;12.34;100.00;92752.81;5004908;28;20507;-70
2021/11/29 08:39:52;;;;;;;3.03;2.50;;;;;;;12.08;100.00;92784.56;4991989;28;20115;-71
2021/11/29 08:42:17;;;;;;;2.22;1.77;;;;;;;11.51;100.00;92800.09;4993604;28;20428;-73
2021/11/29 08:44:43;;;;;;;1.80;1.70;;;;;;;11.41;100.00;92838.75;4991709;28;20033;-73
2021/11/29 08:47:08;;;;;;;5.25;4.15;;;;;;;11.28;100.00;92823.44;5010526;28;20053;-73
2021/11/29 08:49:34;;;;;;;5.75;2.80;;;;;;;11.09;100.00;92872.03;5009663;28;20037;-73
2021/11/29 08:51:59;;;;;;;8.93;7.93;;;;;;;10.99;100.00;92887.31;4992869;28;20041;-71
2021/11/29 08:54:25;;;;;;;11.38;9.32;;;;;;;10.99;100.00;92908.03;4992988;28;20100;-71
2021/11/29 08:56:52;;;;;;;4.93;4.43;;;;;;;10.86;100.00;92938.53;5009354;28;20029;-71
2021/11/29 08:59:19;;;;;;;4.88;3.28;;;;;;;10.30;100.00;93037.25;4976864;28;20030;-71
2021/11/29 09:01:46;;;;;;;5.68;1.70;;;;;;;8.07;100.00;93087.75;5008559;28;20050;-73
2021/11/29 09:04:13;;;;;;;9.63;2.50;;;;;;;7.10;100.00;93131.31;4993110;28;20033;-74
2021/11/29 09:06:39;;;;;;;3.53;1.75;;;;;;;7.00;100.00;93146.38;4991430;28;20034;-73
2021/11/29 09:09:05;;;;;;;3.40;2.10;;;;;;;6.99;100.00;93142.19;4992767;28;20034;-73
2021/11/29 09:11:30;;;;;;;2.75;1.73;;;;;;;7.17;100.00;93155.31;5009935;28;20097;-73
2021/11/29 09:13:56;;;;;;;2.85;1.80;;;;;;;7.11;100.00;93148.38;4992129;28;20598;-73
2021/11/29 09:16:22;;;;;;;0.95;0.80;;;;;;;6.96;100.00;93151.09;4992914;28;20077;-73
2021/11/29 09:18:48;;;;;;;2.58;1.33;;;;;;;7.20;100.00;93142.84;4991306;28;20105;-73
2021/11/29 09:21:15;;;;;;;1.80;1.38;;;;;;;7.18;100.00;93137.09;4993242;28;20469;-73
2021/11/29 09:23:41;;;;;;;1.50;1.33;;;;;;;7.37;100.00;93148.41;4991487;28;20036;-73
2021/11/29 09:26:07;;;;;;;8.63;5.90;;;;;;;7.35;100.00;93156.31;4992673;28;20508;-73
2021/11/29 09:28:34;;;;;;;4.32;2.60;;;;;;;7.26;100.00;93162.66;4991135;28;20507;-72
2021/11/29 09:31:00;;;;;;;3.55;3.08;;;;;;;7.20;100.00;93165.22;4992378;28;20034;-73
2021/11/29 09:33:25;;;;;;;5.22;3.22;;;;;;;7.42;100.00;93156.34;4992755;28;20383;-73
2021/11/29 09:35:51;;;;;;;8.27;5.30;;;;;;;7.27;100.00;93168.59;4974409;28;20060;-72
2021/11/29 09:38:17;;;;;;;1.77;1.63;;;;;;;6.88;100.00;93128.09;4992317;28;20030;-73
2021/11/29 09:40:43;;;;;;;3.03;2.10;;;;;;;7.01;100.00;93178.81;4990552;28;20030;-73
2021/11/29 09:43:11;;;;;;;2.97;1.80;;;;;;;7.03;100.00;93172.47;5009716;28;20549;-72
2021/11/29 09:45:39;;;;;;;1.60;1.45;;;;;;;7.12;100.00;93147.38;4990827;28;20029;-72
2021/11/29 09:48:07;;;;;;;2.42;1.48;;;;;;;7.28;100.00;93145.25;4992082;28;20080;-72
2021/11/29 09:50:33;;;;;;;1.95;1.85;;;;;;;7.40;100.00;93145.44;5009184;28;20041;-72
2021/11/29 09:53:00;;;;;;;2.53;2.28;;;;;;;7.52;100.00;93135.34;4990876;28;20495;-72
2021/11/29 09:55:27;;;;;;;1.88;1.60;;;;;;;7.71;100.00;93107.00;4992294;28;20033;-72
2021/11/29 09:57:56;;;;;;;1.67;1.58;;;;;;;8.02;100.00;93083.22;4989904;28;20064;-72
2021/11/29 10:00:43;;;;;;;2.47;1.52;;;;;;;7.95;100.00;93083.22;4991928;28;20067;-72
2021/11/29 10:03:09;;;;;;;2.13;1.83;;;;;;;8.18;100.00;93079.41;4990075;28;20042;-72
2021/11/29 10:05:36;;;;;;;2.00;1.40;;;;;;;8.20;100.00;93067.09;4974898;28;20029;-72
2021/11/29 10:08:20;;;;;;;3.15;1.77;;;;;;;7.80;100.00;93092.94;4974489;28;20068;-73
2021/11/29 10:10:48;;;;;;;2.45;2.10;;;;;;;7.92;100.00;93096.50;5002153;28;20034;-72
2021/11/29 10:13:13;;;;;;;2.67;2.47;;;;;;;7.76;100.00;93073.75;5008757;28;20037;-72
2021/11/29 10:15:41;;;;;;;2.13;1.80;;;;;;;8.36;100.00;93076.97;4990375;28;20415;-72
2021/11/29 10:18:18;;;;;;;3.67;3.38;;;;;;;8.30;100.00;93091.50;4991574;28;20026;-72
2021/11/29 10:20:51;;;;;;;5.47;4.97;;;;;;;8.18;100.00;93079.41;4990999;28;20121;-72
2021/11/29 10:23:37;;;;;;;4.55;4.15;;;;;;;8.11;100.00;93094.88;5008192;28;20033;-73
2021/11/29 10:26:11;;;;;;;2.55;2.35;;;;;;;8.76;100.00;93077.63;4991383;28;20034;-73
2021/11/29 10:28:41;;;;;;;2.42;2.22;;;;;;;8.21;100.00;93072.06;4989992;28;20034;-72
2021/11/29 10:31:19;;;;;;;2.38;1.70;;;;;;;8.23;100.00;93070.06;5008512;28;20102;-72
2021/11/29 10:33:56;;;;;;;1.38;1.20;;;;;;;8.53;100.00;93062.66;4988035;28;20108;-73
2021/11/29 10:36:23;;;;;;;1.27;1.17;;;;;;;8.48;100.00;93054.72;5005026;28;20033;-73
2021/11/29 10:38:53;;;;;;;1.67;1.50;;;;;;;8.33;100.00;93060.13;4989443;28;20049;-73
2021/11/29 10:41:28;;;;;;;2.20;2.00;;;;;;;8.82;100.00;93051.00;4988970;28;20032;-71
2021/11/29 10:43:54;;;;;;;1.48;1.30;;;;;;;8.33;100.00;93059.34;4972071;28;20104;-71
2021/11/29 10:46:26;;;;;;;1.05;0.88;;;;;;;8.40;100.00;93052.38;4990007;28;20022;-71
2021/11/29 10:48:55;;;;;;;4.45;1.42;;;;;;;8.39;100.00;93035.31;4976474;28;20037;-71
2021/11/29 10:51:21;;;;;;;1.38;1.27;;;;;;;8.46;100.00;93043.81;4971440;28;20113;-71
2021/11/29 10:53:54;;;;;;;1.40;1.20;;;;;;;8.03;100.00;93046.09;4987947;28;20041;-73
2021/11/29 10:56:22;;;;;;;1.77;1.50;;;;;;;8.22;100.00;93045.25;4985410;28;20034;-73
2021/11/29 10:58:50;;;;;;;2.20;1.30;;;;;;;8.24;100.00;93066.50;4989767;28;20101;-73
2021/11/29 11:01:17;;;;;;;1.40;1.30;;;;;;;7.90;100.00;93044.34;4990805;28;20046;-72
2021/11/29 11:03:56;;;;;;;1.40;1.27;;;;;;;7.90;100.00;93059.03;5007473;28;20050;-73
2021/11/29 11:06:34;;;;;;;1.70;1.58;;;;;;;7.69;100.00;93075.53;4989927;28;20403;-72
2021/11/29 11:09:00;;;;;;;1.60;1.13;;;;;;;7.81;100.00;93055.09;4977618;28;20050;-72
2021/11/29 11:11:30;;;;;;;1.20;1.00;;;;;;;7.83;100.00;93050.53;4969859;28;20051;-73
2021/11/29 11:14:05;;;;;;;1.63;1.42;;;;;;;7.51;100.00;93054.75;4989134;28;20026;-72
2021/11/29 11:16:39;;;;;;;2.40;1.40;;;;;;;7.34;100.00;93058.69;4977190;28;20198;-73
2021/11/29 11:19:04;;;;;;;1.88;1.60;;;;;;;7.51;100.00;93065.03;4974137;28;20539;-73
2021/11/29 11:21:33;;;;;;;1.92;1.75;;;;;;;7.48;100.00;93080.88;5008043;28;20029;-73
2021/11/29 11:24:18;;;;;;;0.98;0.88;;;;;;;7.08;100.00;93072.34;4989592;28;20030;-73
2021/11/29 11:26:49;;;;;;;2.70;1.95;;;;;;;7.31;100.00;93067.63;4964947;28;20038;-73
2021/11/29 11:29:31;;;;;;;1.38;1.15;;;;;;;7.36;100.00;93051.56;4986282;28;20030;-72
2021/11/29 11:32:17;;;;;;;1.15;0.82;;;;;;;7.38;100.00;93065.03;4975536;28;20172;-72
2021/11/29 11:34:52;;;;;;;3.28;1.80;;;;;;;7.76;100.00;93071.16;4989547;28;20030;-72
2021/11/29 11:37:19;;;;;;;2.33;2.00;;;;;;;7.71;100.00;93060.66;4981388;28;20022;-72
2021/11/29 11:39:46;;;;;;;2.40;1.45;;;;;;;7.62;100.00;93064.44;4989269;28;20026;-72
2021/11/29 11:42:12;;;;;;;1.80;1.20;;;;;;;7.75;100.00;93048.94;4991234;28;20092;-71
2021/11/29 11:44:39;;;;;;;2.60;1.50;;;;;;;7.72;100.00;93054.50;4987590;28;20026;-71
2021/11/29 11:47:06;;;;;;;2.10;1.60;;;;;;;7.94;100.00;93055.84;4992213;28;20033;-71
2021/11/29 11:49:41;;;;;;;3.25;2.92;;;;;;;7.64;100.00;93062.44;4994528;28;20052;-72
2021/11/29 11:52:12;;;;;;;3.50;3.17;;;;;;;7.84;100.00;93055.47;4990755;28;20096;-72
2021/11/29 11:54:40;;;;;;;2.50;1.63;;;;;;;8.07;100.00;93062.75;4971983;28;20462;-71
2021/11/29 11:57:07;;;;;;;1.40;1.27;;;;;;;7.82;100.00;93059.25;4990087;28;20030;-70
2021/11/29 11:59:50;;;;;;;3.65;2.60;;;;;;;7.84;100.00;93047.75;4991353;28;20026;-71
2021/11/29 12:02:19;;;;;;;3.30;2.85;;;;;;;8.17;100.00;93036.56;4972841;28;20039;-70
2021/11/29 12:05:13;;;;;;;3.22;2.92;;;;;;;7.77;100.00;93030.72;4957718;28;20455;-72
2021/11/29 12:07:39;;;;;;;1.83;1.42;;;;;;;7.83;100.00;93015.22;4952827;28;20066;-72
2021/11/29 12:10:34;;;;;;;2.40;1.90;;;;;;;7.91;100.00;93012.44;4955988;28;20035;-70
2021/11/29 12:13:06;;;;;;;5.22;4.65;;;;;;;7.87;100.00;93015.63;4967893;28;20057;-72
2021/11/29 12:15:46;;;;;;;2.60;2.40;;;;;;;7.94;100.00;93022.34;4980434;28;20030;-70
2021/11/29 12:18:16;;;;;;;2.17;1.88;;;;;;;7.80;100.00;93025.94;4973123;28;20030;-70
2021/11/29 12:21:13;;;;;;;1.70;1.60;;;;;;;7.66;100.00;93039.84;4972534;28;20088;-70
2021/11/29 12:23:51;;;;;;;17.38;11.98;;;;;;;7.52;100.00;93073.53;4972060;28;20034;-71
2021/11/29 12:26:17;;;;;;;3.35;3.05;;;;;;;7.38;100.00;93063.22;4975175;28;20062;-70
2021/11/29 12:28:44;;;;;;;1.25;1.00;;;;;;;7.21;100.00;93098.09;4957048;28;20026;-71
2021/11/29 12:31:57;;;;;;;2.78;1.48;;;;;;;7.22;100.00;93116.91;4974640;28;20038;-70
2021/11/29 12:34:51;;;;;;;0.73;0.68;;;;;;;6.75;100.00;93134.00;4893480;29;20060;-70
2021/11/29 12:37:30;;;;;;;1.15;0.70;;;;;;;6.90;100.00;93139.03;4886800;29;20549;-71
2021/11/29 12:39:58;;;;;;;2.33;1.10;;;;;;;6.76;100.00;93176.75;4939490;28;20057;-72
2021/11/29 12:42:25;;;;;;;3.05;1.20;;;;;;;6.70;100.00;93182.66;4972251;28;20099;-72
2021/11/29 12:44:54;;;;;;;1.00;0.50;;;;;;;6.38;100.00;93185.06;4972571;28;20027;-72
2021/11/29 12:47:20;;;;;;;3.47;0.65;;;;;;;6.32;100.00;93163.50;4970736;28;20038;-72
2021/11/29 12:49:46;;;;;;;1.00;0.30;;;;;;;6.39;100.00;93153.25;4973099;28;20081;-72
2021/11/29 12:52:45;;;;;;;0.60;0.25;;;;;;;6.29;100.00;93148.44;4985443;28;20018;-70
2021/11/29 12:55:20;;;;;;;0.60;0.40;;;;;;;6.61;100.00;93149.59;4957276;28;20074;-70
2021/11/29 12:57:47;;;;;;;1.35;0.70;;;;;;;6.45;100.00;93153.28;4991204;28;20030;-72
2021/11/29 13:00:19;;;;;;;1.20;1.10;;;;;;;6.56;100.00;93118.50;4972518;28;20018;-72
2021/11/29 13:02:50;;;;;;;1.60;1.20;;;;;;;6.74;100.00;93095.63;5009561;28;20494;-72
2021/11/29 13:05:24;;;;;;;0.77;0.60;;;;;;;6.72;100.00;93074.44;5010708;28;20026;-70
2021/11/29 13:08:20;;;;;;;1.38;0.60;;;;;;;6.59;100.00;93088.06;4991253;28;20502;-70
2021/11/29 13:11:05;;;;;;;1.90;1.17;;;;;;;6.72;100.00;93102.72;4991779;28;20062;-70
2021/11/29 13:13:38;;;;;;;3.13;1.55;;;;;;;6.49;100.00;93104.81;5009470;28;20041;-70
2021/11/29 13:16:13;;;;;;;0.80;0.80;;;;;;;6.31;100.00;93103.56;4991976;28;20034;-72
2021/11/29 13:18:41;;;;;;;0.73;0.50;;;;;;;6.06;100.00;93105.03;5010581;28;20037;-72
2021/11/29 13:21:07;;;;;;;0.93;0.60;;;;;;;5.93;100.00;93106.72;4990876;28;20434;-72
2021/11/29 13:23:32;;;;;;;0.50;0.40;;;;;;;6.13;100.00;93095.56;4992538;28;20456;-72
2021/11/29 13:26:05;;;;;;;0.82;0.40;;;;;;;6.38;100.00;93100.25;4990614;28;20061;-72
2021/11/29 13:28:31;;;;;;;0.47;0.40;;;;;;;6.52;100.00;93083.91;4992430;28;20432;-72
2021/11/29 13:30:56;;;;;;;0.85;0.40;;;;;;;6.50;100.00;93094.34;4991476;28;20112;-72
2021/11/29 13:33:22;;;;;;;1.63;0.73;;;;;;;6.95;100.00;93092.09;4991746;28;20111;-72
2021/11/29 13:35:48;;;;;;;1.80;1.20;;;;;;;7.15;100.00;93080.06;4993141;28;20157;-71
2021/11/29 13:38:13;;;;;;;3.05;2.78;;;;;;;7.01;100.00;93060.44;4990825;28;20026;-71
2021/11/29 13:40:39;;;;;;;1.70;1.60;;;;;;;6.97;100.00;93082.44;5010458;28;20030;-70
2021/11/29 13:43:05;;;;;;;1.92;1.02;;;;;;;6.71;100.00;93078.78;4990179;28;20517;-70
2021/11/29 13:45:33;;;;;;;0.90;0.73;;;;;;;7.01;100.00;93066.38;4976288;28;20061;-71
2021/11/29 13:48:08;;;;;;;1.02;0.88;;;;;;;7.02;100.00;93065.41;4974775;28;20030;-70
2021/11/29 13:50:35;;;;;;;2.83;2.63;;;;;;;6.85;100.00;93098.44;4991737;28;20585;-70
2021/11/29 13:53:08;;;;;;;4.30;2.92;;;;;;;6.88;100.00;93110.09;4992139;28;20036;-70
2021/11/29 13:55:36;;;;;;;4.97;3.90;;;;;;;6.63;100.00;93103.91;4990745;28;20045;-73
2021/11/29 13:58:18;;;;;;;3.30;3.00;;;;;;;6.70;100.00;93102.13;4992065;28;20108;-73
2021/11/29 14:00:51;;;;;;;5.65;3.85;;;;;;;6.89;100.00;93103.97;4990708;28;20488;-73
2021/11/29 14:03:20;;;;;;;8.52;5.05;;;;;;;6.73;100.00;93094.03;4989410;28;20569;-70
2021/11/29 14:06:07;;;;;;;6.63;4.57;;;;;;;6.45;100.00;93093.34;4993051;28;20507;-70
2021/11/29 14:08:38;;;;;;;9.68;8.57;;;;;;;6.43;100.00;93103.00;4970982;28;20057;-70
2021/11/29 14:11:08;;;;;;;5.40;4.90;;;;;;;6.13;100.00;93117.91;4973445;28;20484;-70
2021/11/29 14:13:36;;;;;;;1.90;1.73;;;;;;;6.00;100.00;93120.41;4987963;28;20089;-70
2021/11/29 14:16:50;;;;;;;1.77;1.50;;;;;;;6.08;100.00;93121.03;4991210;28;20030;-70
2021/11/29 14:19:09;;;;;;;1.88;1.15;;;;;;;5.96;100.00;93127.69;4999798;28;20120;-70
2021/11/29 14:21:42;;;;;;;0.77;0.70;;;;;;;5.94;100.00;93134.00;4978562;28;20122;-70
2021/11/29 14:24:15;;;;;;;0.95;0.70;;;;;;;5.79;100.00;93127.16;5008106;28;20038;-70
2021/11/29 14:26:45;;;;;;;1.80;0.80;;;;;;;5.82;100.00;93129.34;4979507;28;20555;-70
2021/11/29 14:29:19;;;;;;;1.20;1.10;;;;;;;5.50;100.00;93141.94;4973598;28;20402;-70
2021/11/29 14:31:47;;;;;;;2.83;2.63;;;;;;;5.71;100.00;93160.69;4981479;28;20049;-70
2021/11/29 14:34:18;;;;;;;2.97;2.65;;;;;;;5.47;100.00;93176.47;5006477;28;20041;-70
2021/11/29 14:36:51;;;;;;;1.83;1.23;;;;;;;5.68;100.00;93185.94;4963185;28;20019;-70
2021/11/29 14:39:32;;;;;;;2.15;1.95;;;;;;;5.68;100.00;93196.22;4986892;28;20029;-70
2021/11/29 14:42:04;;;;;;;2.20;2.00;;;;;;;5.69;100.00;93195.22;4989535;28;20037;-73
2021/11/29 14:44:47;;;;;;;4.85;4.20;;;;;;;5.65;100.00;93197.34;4969971;28;20057;-73
2021/11/29 14:47:29;;;;;;;4.20;3.63;;;;;;;5.53;100.00;93200.59;4972079;28;20034;-70
2021/11/29 14:50:17;;;;;;;5.32;4.80;;;;;;;5.47;100.00;93219.31;4971273;28;20475;-70
2021/11/29 14:53:09;;;;;;;2.95;1.75;;;;;;;5.42;100.00;93209.59;4965051;28;20065;-70
2021/11/29 14:55:38;;;;;;;2.70;2.38;;;;;;;5.39;100.00;93204.84;5003450;28;20026;-70
2021/11/29 14:58:09;;;;;;;4.30;2.67;;;;;;;5.23;100.00;93213.53;5008171;28;20030;-70
2021/11/29 15:00:59;;;;;;;3.15;2.85;;;;;;;5.15;100.00;93230.81;4988804;28;20549;-70
2021/11/29 15:03:24;;;;;;;;;;;;;;;5.29;100.00;93258.22;4973912;28;20030;-70
2021/11/29 15:05:52;;;;;;;7.15;6.25;;;;;;;5.27;100.00;93260.16;5005333;28;20576;-70
2021/11/29 15:08:19;;;;;;;24.63;18.98;;;;;;;5.25;100.00;93259.56;4954308;28;20116;-70
2021/11/29 15:10:46;;;;;;;16.17;13.93;;;;;;;5.34;100.00;93263.59;4986946;28;20026;-70
2021/11/29 15:13:12;;;;;;;14.10;10.15;;;;;;;5.36;100.00;93256.53;4973092;28;20465;-69
2021/11/29 15:15:38;;;;;;;4.35;3.95;;;;;;;4.98;100.00;93260.22;4990772;28;20022;-69
2021/11/29 15:18:06;;;;;;;5.78;3.50;;;;;;;5.16;100.00;93269.13;4983064;28;20026;-72
2021/11/29 15:20:41;;;;;;;37.72;21.58;;;;;;;5.36;100.00;93289.91;4990397;28;20025;-72
2021/11/29 15:23:06;;;;;;;64.50;34.33;;;;;;;5.41;100.00;93271.38;4989819;28;20418;-70
2021/11/29 15:25:36;;;;;;;26.27;15.85;;;;;;;5.37;100.00;93281.19;4989402;28;20034;-70
2021/11/29 15:28:19;;;;;;;11.45;7.55;;;;;;;5.35;100.00;93265.19;4974017;28;20033;-70
2021/11/29 15:30:51;;;;;;;9.60;8.07;;;;;;;5.42;100.00;93273.78;4985967;28;20112;-69
2021/11/29 15:33:24;;;;;;;12.30;8.73;;;;;;;5.52;100.00;93289.66;4988025;28;20030;-72
2021/11/29 15:35:52;;;;;;;13.80;9.90;;;;;;;5.67;100.00;93299.88;4992925;28;20041;-72
2021/11/29 15:38:23;;;;;;;8.82;7.72;;;;;;;5.61;100.00;93314.25;4978221;28;20091;-72
2021/11/29 15:41:11;;;;;;;6.30;5.75;;;;;;;5.63;100.00;93316.63;5012307;28;20033;-72
2021/11/29 15:43:43;;;;;;;4.38;3.97;;;;;;;5.54;100.00;93315.16;4993060;28;20112;-72
2021/11/29 15:46:24;;;;;;;5.20;3.55;;;;;;;5.57;100.00;93354.09;4979064;28;20070;-72
2021/11/29 15:48:53;;;;;;;8.73;6.07;;;;;;;5.66;100.00;93376.13;4993701;28;20450;-72
2021/11/29 15:51:25;;;;;;;10.27;7.43;;;;;;;5.75;100.00;93367.31;4991455;28;20054;-72
2021/11/29 15:53:54;;;;;;;9.13;5.63;;;;;;;5.72;100.00;93357.41;4990677;28;20034;-72
2021/11/29 15:56:21;;;;;;;5.38;4.72;;;;;;;5.80;100.00;93329.06;4973828;28;20045;-72
2021/11/29 15:58:47;;;;;;;5.85;4.68;;;;;;;5.59;100.00;93326.47;4973932;28;20030;-72
2021/11/29 16:01:17;;;;;;;3.42;3.10;;;;;;;5.52;100.00;93330.72;4971086;28;20055;-72
2021/11/29 16:03:44;;;;;;;11.65;8.82;;;;;;;5.61;100.00;93341.69;4974494;28;20042;-71
2021/11/29 16:06:11;;;;;;;12.93;9.63;;;;;;;5.62;100.00;93336.38;4973656;28;20447;-71
2021/11/29 16:08:36;;;;;;;11.27;9.88;;;;;;;5.58;100.00;93334.34;4990521;28;20073;-72
2021/11/29 16:11:02;;;;;;;8.00;6.13;;;;;;;5.63;100.00;93324.31;4974336;28;20026;-70
2021/11/29 16:13:28;;;;;;;3.97;3.67;;;;;;;5.59;100.00;93338.50;4990889;28;20042;-69
2021/11/29 16:15:55;;;;;;;4.15;3.35;;;;;;;5.63;100.00;93337.16;5007825;28;20026;-70
2021/11/29 16:21:05;;;;;;;6.07;5.43;;;;;;;5.50;100.00;93317.28;4988156;28;20038;-71
2021/11/29 16:23:33;;;;;;;5.20;4.28;;;;;;;5.41;100.00;93318.38;4977604;28;20014;-72
2021/11/29 16:26:02;;;;;;;4.95;4.45;;;;;;;5.32;100.00;93320.25;4993279;28;20025;-72
2021/11/29 16:31:13;;;;;;;7.75;7.05;;;;;;;5.18;100.00;93327.94;4994942;28;20169;-70
2021/11/29 16:33:39;;;;;;;6.32;4.22;;;;;;;5.27;100.00;93329.44;5009123;28;20434;-72
2021/11/29 16:38:51;;;;;;;7.47;6.65;;;;;;;5.30;100.00;93323.94;4993316;28;20124;-72
2021/11/29 16:41:16;;;;;;;113.38;32.70;;;;;;;5.27;100.00;93322.53;4976903;28;20038;-72
2021/11/29 16:43:43;;;;;;;54.70;18.58;;;;;;;5.27;100.00;93319.97;5010037;28;20029;-70
2021/11/29 16:46:11;;;;;;;7.10;6.53;;;;;;;5.06;100.00;93321.69;4993422;28;20196;-72
2021/11/29 16:48:36;;;;;;;30.08;13.13;;;;;;;5.03;100.00;93334.88;5008964;28;20044;-72
2021/11/29 16:51:05;;;;;;;30.23;14.23;;;;;;;5.09;100.00;93329.81;4990439;28;20077;-71